sensor_id;sensor_type;location;lat;lon;timestamp;temperature;humidity
13186;DHT22;6658;53.080;7.428;2023-05-28T00:02:10;9.70;99.90
13186;DHT22;6658;53.080;7.428;2023-05-28T00:04:35;9.70;99.90
13186;DHT22;6658;53.080;7.428;2023-05-28T00:07:02;9.70;99.90
13186;DHT22;6658;53.080;7.428;2023-05-28T00:09:28;9.60;99.90
13186;DHT22;6658;53.080;7.428;2023-05-28T00:11:54;9.60;99.90
13186;DHT22;6658;53.080;7.428;2023-05-28T00:14:21;9.50;99.90
13186;DHT22;6658;53.080;7.428;2023-05-28T00:16:47;9.50;99.90
13186;DHT22;6658;53.080;7.428;2023-05-28T00:19:13;9.50;99.90
13186;DHT22;6658;53.080;7.428;2023-05-28T00:21:38;9.50;99.90
13186;DHT22;6658;53.080;7.428;2023-05-28T00:24:04;9.50;99.90
13186;DHT22;6658;53.080;7.428;2023-05-28T00:26:30;9.50;99.90
13186;DHT22;6658;53.080;7.428;2023-05-28T00:28:56;9.50;99.90
13186;DHT22;6658;53.080;7.428;2023-05-28T00:31:22;9.40;99.90
13186;DHT22;6658;53.080;7.428;2023-05-28T00:33:47;9.40;99.90
13186;DHT22;6658;53.080;7.428;2023-05-28T00:36:13;9.40;99.90
13186;DHT22;6658;53.080;7.428;2023-05-28T00:38:39;9.40;99.90
13186;DHT22;6658;53.080;7.428;2023-05-28T00:41:05;9.30;99.90
13186;DHT22;6658;53.080;7.428;2023-05-28T00:43:31;9.30;99.90
13186;DHT22;6658;53.080;7.428;2023-05-28T00:45:59;9.30;99.90
13186;DHT22;6658;53.080;7.428;2023-05-28T00:48:27;9.30;99.90
13186;DHT22;6658;53.080;7.428;2023-05-28T00:50:54;9.30;99.90
13186;DHT22;6658;53.080;7.428;2023-05-28T00:53:20;9.30;99.90
13186;DHT22;6658;53.080;7.428;2023-05-28T00:55:47;9.40;99.90
13186;DHT22;6658;53.080;7.428;2023-05-28T00:58:14;9.40;99.90
13186;DHT22;6658;53.080;7.428;2023-05-28T01:00:42;9.40;99.90
13186;DHT22;6658;53.080;7.428;2023-05-28T01:03:08;9.40;99.90
13186;DHT22;6658;53.080;7.428;2023-05-28T01:05:35;9.40;99.90
13186;DHT22;6658;53.080;7.428;2023-05-28T01:08:02;9.30;99.90
13186;DHT22;6658;53.080;7.428;2023-05-28T01:10:29;9.30;99.90
13186;DHT22;6658;53.080;7.428;2023-05-28T01:12:55;9.20;99.90
13186;DHT22;6658;53.080;7.428;2023-05-28T01:15:22;9.20;99.90
13186;DHT22;6658;53.080;7.428;2023-05-28T01:17:49;9.20;99.90
13186;DHT22;6658;53.080;7.428;2023-05-28T01:20:17;9.20;99.90
13186;DHT22;6658;53.080;7.428;2023-05-28T01:22:53;9.20;99.90
13186;DHT22;6658;53.080;7.428;2023-05-28T01:25:21;9.20;99.90
13186;DHT22;6658;53.080;7.428;2023-05-28T01:27:47;9.20;99.90
13186;DHT22;6658;53.080;7.428;2023-05-28T01:30:13;9.10;99.90
13186;DHT22;6658;53.080;7.428;2023-05-28T01:32:39;9.10;99.90
13186;DHT22;6658;53.080;7.428;2023-05-28T01:35:06;9.10;99.90
13186;DHT22;6658;53.080;7.428;2023-05-28T01:37:36;9.00;99.90
13186;DHT22;6658;53.080;7.428;2023-05-28T01:40:02;9.00;99.90
13186;DHT22;6658;53.080;7.428;2023-05-28T01:42:30;9.00;99.90
13186;DHT22;6658;53.080;7.428;2023-05-28T01:44:57;8.90;99.90
13186;DHT22;6658;53.080;7.428;2023-05-28T01:47:23;8.90;99.90
13186;DHT22;6658;53.080;7.428;2023-05-28T01:49:50;8.90;99.90
13186;DHT22;6658;53.080;7.428;2023-05-28T01:52:16;8.90;99.90
13186;DHT22;6658;53.080;7.428;2023-05-28T01:54:42;8.90;99.90
13186;DHT22;6658;53.080;7.428;2023-05-28T01:57:07;8.90;99.90
13186;DHT22;6658;53.080;7.428;2023-05-28T01:59:33;8.90;99.90
13186;DHT22;6658;53.080;7.428;2023-05-28T02:01:59;8.90;99.90
13186;DHT22;6658;53.080;7.428;2023-05-28T02:04:24;8.90;99.90
13186;DHT22;6658;53.080;7.428;2023-05-28T02:06:51;8.90;99.90
13186;DHT22;6658;53.080;7.428;2023-05-28T02:09:17;9.00;99.90
13186;DHT22;6658;53.080;7.428;2023-05-28T02:11:43;9.00;99.90
13186;DHT22;6658;53.080;7.428;2023-05-28T02:14:08;9.00;99.90
13186;DHT22;6658;53.080;7.428;2023-05-28T02:16:41;9.10;99.90
13186;DHT22;6658;53.080;7.428;2023-05-28T02:19:09;9.10;99.90
13186;DHT22;6658;53.080;7.428;2023-05-28T02:21:34;9.20;99.90
13186;DHT22;6658;53.080;7.428;2023-05-28T02:24:01;9.20;99.90
13186;DHT22;6658;53.080;7.428;2023-05-28T02:26:27;9.20;99.90
13186;DHT22;6658;53.080;7.428;2023-05-28T02:28:53;9.30;99.90
13186;DHT22;6658;53.080;7.428;2023-05-28T02:31:18;9.30;99.90
13186;DHT22;6658;53.080;7.428;2023-05-28T02:33:44;9.30;99.90
13186;DHT22;6658;53.080;7.428;2023-05-28T02:36:10;9.30;99.90
13186;DHT22;6658;53.080;7.428;2023-05-28T02:38:37;9.40;99.90
13186;DHT22;6658;53.080;7.428;2023-05-28T02:41:03;9.40;99.90
13186;DHT22;6658;53.080;7.428;2023-05-28T02:43:29;9.40;99.90
13186;DHT22;6658;53.080;7.428;2023-05-28T02:45:55;9.40;99.90
13186;DHT22;6658;53.080;7.428;2023-05-28T02:48:21;9.50;99.90
13186;DHT22;6658;53.080;7.428;2023-05-28T02:50:47;9.50;99.90
13186;DHT22;6658;53.080;7.428;2023-05-28T02:53:12;9.50;99.90
13186;DHT22;6658;53.080;7.428;2023-05-28T02:55:38;9.50;99.90
13186;DHT22;6658;53.080;7.428;2023-05-28T02:58:04;9.60;99.90
13186;DHT22;6658;53.080;7.428;2023-05-28T03:00:31;9.60;99.90
13186;DHT22;6658;53.080;7.428;2023-05-28T03:02:57;9.60;99.90
13186;DHT22;6658;53.080;7.428;2023-05-28T03:05:22;9.60;99.90
13186;DHT22;6658;53.080;7.428;2023-05-28T03:07:48;9.70;99.90
13186;DHT22;6658;53.080;7.428;2023-05-28T03:10:14;9.70;99.90
13186;DHT22;6658;53.080;7.428;2023-05-28T03:12:40;9.70;99.90
13186;DHT22;6658;53.080;7.428;2023-05-28T03:15:06;9.70;99.90
13186;DHT22;6658;53.080;7.428;2023-05-28T03:17:32;9.80;99.90
13186;DHT22;6658;53.080;7.428;2023-05-28T03:19:58;9.80;99.90
13186;DHT22;6658;53.080;7.428;2023-05-28T03:22:24;9.80;99.90
13186;DHT22;6658;53.080;7.428;2023-05-28T03:24:50;9.80;99.90
13186;DHT22;6658;53.080;7.428;2023-05-28T03:27:16;9.90;99.90
13186;DHT22;6658;53.080;7.428;2023-05-28T03:29:41;9.90;99.90
13186;DHT22;6658;53.080;7.428;2023-05-28T03:32:07;9.90;99.90
13186;DHT22;6658;53.080;7.428;2023-05-28T03:34:33;10.00;99.90
13186;DHT22;6658;53.080;7.428;2023-05-28T03:37:02;10.00;99.90
13186;DHT22;6658;53.080;7.428;2023-05-28T03:39:27;10.00;99.90
13186;DHT22;6658;53.080;7.428;2023-05-28T03:41:53;10.10;99.90
13186;DHT22;6658;53.080;7.428;2023-05-28T03:44:19;10.10;99.90
13186;DHT22;6658;53.080;7.428;2023-05-28T03:46:45;10.10;99.90
13186;DHT22;6658;53.080;7.428;2023-05-28T03:49:10;10.20;99.90
13186;DHT22;6658;53.080;7.428;2023-05-28T03:51:36;10.20;99.90
13186;DHT22;6658;53.080;7.428;2023-05-28T03:54:02;10.30;99.90
13186;DHT22;6658;53.080;7.428;2023-05-28T03:56:28;10.30;99.90
13186;DHT22;6658;53.080;7.428;2023-05-28T03:58:55;10.30;99.90
13186;DHT22;6658;53.080;7.428;2023-05-28T04:01:20;10.30;99.90
13186;DHT22;6658;53.080;7.428;2023-05-28T04:03:46;10.40;99.90
13186;DHT22;6658;53.080;7.428;2023-05-28T04:06:12;10.40;99.90
13186;DHT22;6658;53.080;7.428;2023-05-28T04:08:38;10.50;99.90
13186;DHT22;6658;53.080;7.428;2023-05-28T04:11:03;10.50;99.90
13186;DHT22;6658;53.080;7.428;2023-05-28T04:13:29;10.60;99.90
13186;DHT22;6658;53.080;7.428;2023-05-28T04:15:55;10.60;99.90
13186;DHT22;6658;53.080;7.428;2023-05-28T04:18:21;10.70;99.90
13186;DHT22;6658;53.080;7.428;2023-05-28T04:20:47;10.80;99.90
13186;DHT22;6658;53.080;7.428;2023-05-28T04:23:12;10.80;99.90
13186;DHT22;6658;53.080;7.428;2023-05-28T04:25:38;10.90;99.90
13186;DHT22;6658;53.080;7.428;2023-05-28T04:28:04;11.00;99.90
13186;DHT22;6658;53.080;7.428;2023-05-28T04:30:29;11.00;99.90
13186;DHT22;6658;53.080;7.428;2023-05-28T04:32:55;11.10;99.90
13186;DHT22;6658;53.080;7.428;2023-05-28T04:35:22;11.10;99.90
13186;DHT22;6658;53.080;7.428;2023-05-28T04:37:48;11.20;99.90
13186;DHT22;6658;53.080;7.428;2023-05-28T04:40:16;11.20;99.90
13186;DHT22;6658;53.080;7.428;2023-05-28T04:42:42;11.30;99.90
13186;DHT22;6658;53.080;7.428;2023-05-28T04:45:11;11.40;99.90
13186;DHT22;6658;53.080;7.428;2023-05-28T04:47:37;11.40;99.90
13186;DHT22;6658;53.080;7.428;2023-05-28T04:50:04;11.50;99.90
13186;DHT22;6658;53.080;7.428;2023-05-28T04:52:33;11.50;99.90
13186;DHT22;6658;53.080;7.428;2023-05-28T04:55:02;11.60;99.90
13186;DHT22;6658;53.080;7.428;2023-05-28T04:57:29;11.70;99.90
13186;DHT22;6658;53.080;7.428;2023-05-28T04:59:55;11.80;99.90
13186;DHT22;6658;53.080;7.428;2023-05-28T05:02:20;11.90;99.90
13186;DHT22;6658;53.080;7.428;2023-05-28T05:04:47;12.00;99.90
13186;DHT22;6658;53.080;7.428;2023-05-28T05:07:13;12.10;99.90
13186;DHT22;6658;53.080;7.428;2023-05-28T05:09:40;12.30;99.90
13186;DHT22;6658;53.080;7.428;2023-05-28T05:12:07;12.50;99.90
13186;DHT22;6658;53.080;7.428;2023-05-28T05:14:33;12.60;99.90
13186;DHT22;6658;53.080;7.428;2023-05-28T05:17:00;12.60;99.90
13186;DHT22;6658;53.080;7.428;2023-05-28T05:19:26;12.70;99.90
13186;DHT22;6658;53.080;7.428;2023-05-28T05:21:52;12.70;99.90
13186;DHT22;6658;53.080;7.428;2023-05-28T05:24:18;12.90;99.90
13186;DHT22;6658;53.080;7.428;2023-05-28T05:26:43;13.20;99.90
13186;DHT22;6658;53.080;7.428;2023-05-28T05:29:09;13.30;99.90
13186;DHT22;6658;53.080;7.428;2023-05-28T05:31:35;13.40;99.90
13186;DHT22;6658;53.080;7.428;2023-05-28T05:34:01;13.80;99.90
13186;DHT22;6658;53.080;7.428;2023-05-28T05:36:27;14.00;99.90
13186;DHT22;6658;53.080;7.428;2023-05-28T05:38:52;14.30;99.90
13186;DHT22;6658;53.080;7.428;2023-05-28T05:41:18;14.60;99.90
13186;DHT22;6658;53.080;7.428;2023-05-28T05:43:44;14.70;99.90
13186;DHT22;6658;53.080;7.428;2023-05-28T05:46:10;14.50;99.90
13186;DHT22;6658;53.080;7.428;2023-05-28T05:48:35;14.40;99.90
13186;DHT22;6658;53.080;7.428;2023-05-28T05:51:01;14.40;99.90
13186;DHT22;6658;53.080;7.428;2023-05-28T05:53:28;14.40;99.90
13186;DHT22;6658;53.080;7.428;2023-05-28T05:55:54;14.50;99.90
13186;DHT22;6658;53.080;7.428;2023-05-28T05:58:20;14.40;99.90
13186;DHT22;6658;53.080;7.428;2023-05-28T06:00:46;14.60;99.90
13186;DHT22;6658;53.080;7.428;2023-05-28T06:03:13;14.70;99.90
13186;DHT22;6658;53.080;7.428;2023-05-28T06:05:39;14.90;99.90
13186;DHT22;6658;53.080;7.428;2023-05-28T06:08:05;15.10;99.90
13186;DHT22;6658;53.080;7.428;2023-05-28T06:10:31;15.40;99.90
13186;DHT22;6658;53.080;7.428;2023-05-28T06:12:57;15.80;99.90
13186;DHT22;6658;53.080;7.428;2023-05-28T06:15:27;15.70;99.90
13186;DHT22;6658;53.080;7.428;2023-05-28T06:17:53;15.70;99.90
13186;DHT22;6658;53.080;7.428;2023-05-28T06:20:18;15.80;99.90
13186;DHT22;6658;53.080;7.428;2023-05-28T06:22:45;15.90;99.90
13186;DHT22;6658;53.080;7.428;2023-05-28T06:25:11;15.60;99.90
13186;DHT22;6658;53.080;7.428;2023-05-28T06:27:37;15.60;99.90
13186;DHT22;6658;53.080;7.428;2023-05-28T06:30:04;15.90;99.90
13186;DHT22;6658;53.080;7.428;2023-05-28T06:32:30;16.30;99.90
13186;DHT22;6658;53.080;7.428;2023-05-28T06:34:56;16.80;99.90
13186;DHT22;6658;53.080;7.428;2023-05-28T06:37:22;17.00;99.90
13186;DHT22;6658;53.080;7.428;2023-05-28T06:39:48;17.40;99.90
13186;DHT22;6658;53.080;7.428;2023-05-28T06:42:14;17.90;99.90
13186;DHT22;6658;53.080;7.428;2023-05-28T06:44:39;17.80;99.90
13186;DHT22;6658;53.080;7.428;2023-05-28T06:47:05;17.70;99.90
13186;DHT22;6658;53.080;7.428;2023-05-28T06:49:31;17.70;99.90
13186;DHT22;6658;53.080;7.428;2023-05-28T06:51:57;17.60;99.90
13186;DHT22;6658;53.080;7.428;2023-05-28T06:54:23;17.60;99.90
13186;DHT22;6658;53.080;7.428;2023-05-28T06:56:49;17.70;99.90
13186;DHT22;6658;53.080;7.428;2023-05-28T06:59:15;18.10;99.90
13186;DHT22;6658;53.080;7.428;2023-05-28T07:01:41;18.00;99.90
13186;DHT22;6658;53.080;7.428;2023-05-28T07:04:06;18.10;99.90
13186;DHT22;6658;53.080;7.428;2023-05-28T07:06:32;18.20;99.90
13186;DHT22;6658;53.080;7.428;2023-05-28T07:08:59;18.20;99.90
13186;DHT22;6658;53.080;7.428;2023-05-28T07:11:25;18.20;99.90
13186;DHT22;6658;53.080;7.428;2023-05-28T07:13:52;17.90;99.90
13186;DHT22;6658;53.080;7.428;2023-05-28T07:16:20;18.00;99.90
13186;DHT22;6658;53.080;7.428;2023-05-28T07:18:46;18.40;99.90
13186;DHT22;6658;53.080;7.428;2023-05-28T07:21:12;18.70;99.90
13186;DHT22;6658;53.080;7.428;2023-05-28T07:23:38;18.90;99.90
13186;DHT22;6658;53.080;7.428;2023-05-28T07:26:03;18.70;99.90
13186;DHT22;6658;53.080;7.428;2023-05-28T07:28:30;18.60;99.90
13186;DHT22;6658;53.080;7.428;2023-05-28T07:30:56;18.70;99.90
13186;DHT22;6658;53.080;7.428;2023-05-28T07:33:22;18.70;99.90
13186;DHT22;6658;53.080;7.428;2023-05-28T07:35:48;18.80;99.90
13186;DHT22;6658;53.080;7.428;2023-05-28T07:38:14;19.20;99.90
13186;DHT22;6658;53.080;7.428;2023-05-28T07:40:43;19.10;99.90
13186;DHT22;6658;53.080;7.428;2023-05-28T07:43:08;19.30;99.90
13186;DHT22;6658;53.080;7.428;2023-05-28T07:45:34;19.50;99.90
13186;DHT22;6658;53.080;7.428;2023-05-28T07:48:00;19.50;99.90
13186;DHT22;6658;53.080;7.428;2023-05-28T07:50:26;19.70;99.90
13186;DHT22;6658;53.080;7.428;2023-05-28T07:52:53;20.20;99.90
13186;DHT22;6658;53.080;7.428;2023-05-28T07:55:19;20.10;99.90
13186;DHT22;6658;53.080;7.428;2023-05-28T07:57:45;20.00;99.90
13186;DHT22;6658;53.080;7.428;2023-05-28T08:00:11;20.10;99.90
13186;DHT22;6658;53.080;7.428;2023-05-28T08:02:45;20.30;99.90
13186;DHT22;6658;53.080;7.428;2023-05-28T08:05:10;20.60;99.90
13186;DHT22;6658;53.080;7.428;2023-05-28T08:07:37;20.90;99.90
13186;DHT22;6658;53.080;7.428;2023-05-28T08:10:03;20.70;99.90
13186;DHT22;6658;53.080;7.428;2023-05-28T08:12:29;20.80;99.90
13186;DHT22;6658;53.080;7.428;2023-05-28T08:14:55;21.20;99.90
13186;DHT22;6658;53.080;7.428;2023-05-28T08:17:22;21.20;99.90
13186;DHT22;6658;53.080;7.428;2023-05-28T08:19:49;21.00;99.90
13186;DHT22;6658;53.080;7.428;2023-05-28T08:22:15;20.80;99.90
13186;DHT22;6658;53.080;7.428;2023-05-28T08:24:41;20.80;99.90
13186;DHT22;6658;53.080;7.428;2023-05-28T08:27:07;20.70;99.90
13186;DHT22;6658;53.080;7.428;2023-05-28T08:29:32;21.00;99.90
13186;DHT22;6658;53.080;7.428;2023-05-28T08:31:59;20.90;99.90
13186;DHT22;6658;53.080;7.428;2023-05-28T08:34:25;21.00;99.90
13186;DHT22;6658;53.080;7.428;2023-05-28T08:36:52;21.30;99.90
13186;DHT22;6658;53.080;7.428;2023-05-28T08:39:17;21.10;99.90
13186;DHT22;6658;53.080;7.428;2023-05-28T08:41:43;21.30;99.90
13186;DHT22;6658;53.080;7.428;2023-05-28T08:44:10;21.60;99.90
13186;DHT22;6658;53.080;7.428;2023-05-28T08:46:36;21.70;99.90
13186;DHT22;6658;53.080;7.428;2023-05-28T08:49:02;21.90;99.90
13186;DHT22;6658;53.080;7.428;2023-05-28T08:51:30;21.80;99.90
13186;DHT22;6658;53.080;7.428;2023-05-28T08:53:59;22.20;99.90
13186;DHT22;6658;53.080;7.428;2023-05-28T08:56:28;22.30;99.90
13186;DHT22;6658;53.080;7.428;2023-05-28T08:58:54;22.40;99.90
13186;DHT22;6658;53.080;7.428;2023-05-28T09:01:20;22.50;99.90
13186;DHT22;6658;53.080;7.428;2023-05-28T09:03:46;22.70;99.90
13186;DHT22;6658;53.080;7.428;2023-05-28T09:06:11;22.90;99.90
13186;DHT22;6658;53.080;7.428;2023-05-28T09:08:40;22.90;99.50
13186;DHT22;6658;53.080;7.428;2023-05-28T09:11:11;23.30;99.90
13186;DHT22;6658;53.080;7.428;2023-05-28T09:13:44;23.10;98.60
13186;DHT22;6658;53.080;7.428;2023-05-28T09:16:11;23.10;99.40
13186;DHT22;6658;53.080;7.428;2023-05-28T09:18:37;23.20;98.90
13186;DHT22;6658;53.080;7.428;2023-05-28T09:21:09;23.10;98.90
13186;DHT22;6658;53.080;7.428;2023-05-28T09:23:39;23.40;98.30
13186;DHT22;6658;53.080;7.428;2023-05-28T09:26:09;23.50;97.80
13186;DHT22;6658;53.080;7.428;2023-05-28T09:28:35;23.70;97.50
13186;DHT22;6658;53.080;7.428;2023-05-28T09:31:04;24.00;97.10
13186;DHT22;6658;53.080;7.428;2023-05-28T09:33:30;24.10;96.60
13186;DHT22;6658;53.080;7.428;2023-05-28T09:36:00;24.10;96.00
13186;DHT22;6658;53.080;7.428;2023-05-28T09:38:27;24.20;97.00
13186;DHT22;6658;53.080;7.428;2023-05-28T09:41:03;24.20;94.70
13186;DHT22;6658;53.080;7.428;2023-05-28T09:43:29;23.80;95.20
13186;DHT22;6658;53.080;7.428;2023-05-28T09:46:07;24.30;94.10
13186;DHT22;6658;53.080;7.428;2023-05-28T09:48:34;24.60;92.80
13186;DHT22;6658;53.080;7.428;2023-05-28T09:51:09;24.40;91.90
13186;DHT22;6658;53.080;7.428;2023-05-28T09:53:37;24.90;92.80
13186;DHT22;6658;53.080;7.428;2023-05-28T09:56:09;24.90;90.30
13186;DHT22;6658;53.080;7.428;2023-05-28T09:58:36;25.00;91.90
13186;DHT22;6658;53.080;7.428;2023-05-28T10:01:08;25.40;90.80
13186;DHT22;6658;53.080;7.428;2023-05-28T10:06:17;25.50;85.90
13186;DHT22;6658;53.080;7.428;2023-05-28T10:08:51;25.40;81.60
13186;DHT22;6658;53.080;7.428;2023-05-28T10:11:21;25.60;80.20
13186;DHT22;6658;53.080;7.428;2023-05-28T10:13:48;25.70;81.40
13186;DHT22;6658;53.080;7.428;2023-05-28T10:16:14;25.40;80.80
13186;DHT22;6658;53.080;7.428;2023-05-28T10:18:42;25.70;78.10
13186;DHT22;6658;53.080;7.428;2023-05-28T10:21:08;25.60;79.00
13186;DHT22;6658;53.080;7.428;2023-05-28T10:23:35;25.80;75.40
13186;DHT22;6658;53.080;7.428;2023-05-28T10:26:01;26.00;72.40
13186;DHT22;6658;53.080;7.428;2023-05-28T10:28:29;26.10;70.40
13186;DHT22;6658;53.080;7.428;2023-05-28T10:31:20;26.40;68.50
13186;DHT22;6658;53.080;7.428;2023-05-28T10:33:46;25.90;66.70
13186;DHT22;6658;53.080;7.428;2023-05-28T10:36:13;25.90;68.70
13186;DHT22;6658;53.080;7.428;2023-05-28T10:39:00;25.90;67.40
13186;DHT22;6658;53.080;7.428;2023-05-28T10:41:33;25.70;67.30
13186;DHT22;6658;53.080;7.428;2023-05-28T10:44:06;26.60;65.20
13186;DHT22;6658;53.080;7.428;2023-05-28T10:46:39;26.80;64.30
13186;DHT22;6658;53.080;7.428;2023-05-28T10:49:15;26.80;65.70
13186;DHT22;6658;53.080;7.428;2023-05-28T10:51:56;27.30;63.40
13186;DHT22;6658;53.080;7.428;2023-05-28T10:57:14;26.80;61.60
13186;DHT22;6658;53.080;7.428;2023-05-28T11:02:18;24.60;65.70
13186;DHT22;6658;53.080;7.428;2023-05-28T11:04:45;23.60;66.30
13186;DHT22;6658;53.080;7.428;2023-05-28T11:07:12;23.80;69.60
13186;DHT22;6658;53.080;7.428;2023-05-28T11:09:38;24.30;68.90
13186;DHT22;6658;53.080;7.428;2023-05-28T11:12:05;24.40;67.00
13186;DHT22;6658;53.080;7.428;2023-05-28T11:14:38;23.90;66.70
13186;DHT22;6658;53.080;7.428;2023-05-28T11:17:11;23.50;67.60
13186;DHT22;6658;53.080;7.428;2023-05-28T11:19:55;23.30;66.70
13186;DHT22;6658;53.080;7.428;2023-05-28T11:22:21;23.40;63.70
13186;DHT22;6658;53.080;7.428;2023-05-28T11:24:58;24.00;61.70
13186;DHT22;6658;53.080;7.428;2023-05-28T11:27:28;24.90;60.80
13186;DHT22;6658;53.080;7.428;2023-05-28T11:29:56;25.50;59.40
13186;DHT22;6658;53.080;7.428;2023-05-28T11:32:22;25.80;57.70
13186;DHT22;6658;53.080;7.428;2023-05-28T11:34:49;25.60;57.20
13186;DHT22;6658;53.080;7.428;2023-05-28T11:37:16;25.60;57.60
13186;DHT22;6658;53.080;7.428;2023-05-28T11:39:49;25.60;56.60
13186;DHT22;6658;53.080;7.428;2023-05-28T11:42:16;25.90;58.40
13186;DHT22;6658;53.080;7.428;2023-05-28T11:44:46;26.30;55.20
13186;DHT22;6658;53.080;7.428;2023-05-28T11:47:13;26.20;54.70
13186;DHT22;6658;53.080;7.428;2023-05-28T11:49:39;25.90;54.20
13186;DHT22;6658;53.080;7.428;2023-05-28T11:52:07;25.30;54.40
13186;DHT22;6658;53.080;7.428;2023-05-28T11:54:34;24.80;54.30
13186;DHT22;6658;53.080;7.428;2023-05-28T11:57:03;24.40;55.40
13186;DHT22;6658;53.080;7.428;2023-05-28T11:59:28;24.40;56.30
13186;DHT22;6658;53.080;7.428;2023-05-28T12:02:16;24.30;55.40
13186;DHT22;6658;53.080;7.428;2023-05-28T12:04:55;24.50;56.70
13186;DHT22;6658;53.080;7.428;2023-05-28T12:07:20;24.70;55.00
13186;DHT22;6658;53.080;7.428;2023-05-28T12:09:47;25.10;56.20
13186;DHT22;6658;53.080;7.428;2023-05-28T12:12:13;25.10;56.10
13186;DHT22;6658;53.080;7.428;2023-05-28T12:14:39;24.90;55.80
13186;DHT22;6658;53.080;7.428;2023-05-28T12:17:08;24.60;57.20
13186;DHT22;6658;53.080;7.428;2023-05-28T12:19:35;25.10;55.70
13186;DHT22;6658;53.080;7.428;2023-05-28T12:22:02;24.60;56.00
13186;DHT22;6658;53.080;7.428;2023-05-28T12:24:28;24.60;57.50
13186;DHT22;6658;53.080;7.428;2023-05-28T12:26:54;24.60;57.70
13186;DHT22;6658;53.080;7.428;2023-05-28T12:29:20;24.00;59.00
13186;DHT22;6658;53.080;7.428;2023-05-28T12:31:45;23.80;62.20
13186;DHT22;6658;53.080;7.428;2023-05-28T12:34:11;23.50;61.40
13186;DHT22;6658;53.080;7.428;2023-05-28T12:36:37;23.10;62.50
13186;DHT22;6658;53.080;7.428;2023-05-28T12:39:03;23.00;63.60
13186;DHT22;6658;53.080;7.428;2023-05-28T12:41:30;22.80;64.70
13186;DHT22;6658;53.080;7.428;2023-05-28T12:43:56;22.50;61.60
13186;DHT22;6658;53.080;7.428;2023-05-28T12:46:21;22.40;62.80
13186;DHT22;6658;53.080;7.428;2023-05-28T12:48:47;22.30;62.10
13186;DHT22;6658;53.080;7.428;2023-05-28T12:51:14;22.20;61.10
13186;DHT22;6658;53.080;7.428;2023-05-28T12:53:40;22.00;61.70
13186;DHT22;6658;53.080;7.428;2023-05-28T12:56:05;22.00;63.10
13186;DHT22;6658;53.080;7.428;2023-05-28T12:58:31;21.90;66.40
13186;DHT22;6658;53.080;7.428;2023-05-28T13:00:57;21.80;66.50
13186;DHT22;6658;53.080;7.428;2023-05-28T13:03:23;21.80;63.90
13186;DHT22;6658;53.080;7.428;2023-05-28T13:05:49;21.70;65.50
13186;DHT22;6658;53.080;7.428;2023-05-28T13:08:15;21.60;63.80
13186;DHT22;6658;53.080;7.428;2023-05-28T13:10:41;21.70;69.50
13186;DHT22;6658;53.080;7.428;2023-05-28T13:13:06;21.60;78.30
13186;DHT22;6658;53.080;7.428;2023-05-28T13:15:32;21.70;78.70
13186;DHT22;6658;53.080;7.428;2023-05-28T13:17:57;21.60;79.40
13186;DHT22;6658;53.080;7.428;2023-05-28T13:20:23;21.50;81.00
13186;DHT22;6658;53.080;7.428;2023-05-28T13:22:50;21.50;84.70
13186;DHT22;6658;53.080;7.428;2023-05-28T13:25:16;21.60;86.40
13186;DHT22;6658;53.080;7.428;2023-05-28T13:27:42;21.60;85.30
13186;DHT22;6658;53.080;7.428;2023-05-28T13:30:08;21.60;86.80
13186;DHT22;6658;53.080;7.428;2023-05-28T13:32:34;21.50;87.30
13186;DHT22;6658;53.080;7.428;2023-05-28T13:34:59;21.20;88.30
13186;DHT22;6658;53.080;7.428;2023-05-28T13:37:25;21.20;91.10
13186;DHT22;6658;53.080;7.428;2023-05-28T13:39:52;21.20;91.00
13186;DHT22;6658;53.080;7.428;2023-05-28T13:42:18;21.20;91.90
13186;DHT22;6658;53.080;7.428;2023-05-28T13:44:45;21.20;90.20
13186;DHT22;6658;53.080;7.428;2023-05-28T13:47:12;21.20;91.90
13186;DHT22;6658;53.080;7.428;2023-05-28T13:49:38;21.30;92.20
13186;DHT22;6658;53.080;7.428;2023-05-28T13:52:04;21.40;93.70
13186;DHT22;6658;53.080;7.428;2023-05-28T13:54:30;21.40;94.10
13186;DHT22;6658;53.080;7.428;2023-05-28T13:56:56;21.20;94.30
13186;DHT22;6658;53.080;7.428;2023-05-28T13:59:21;21.10;96.00
13186;DHT22;6658;53.080;7.428;2023-05-28T14:01:47;21.10;94.70
13186;DHT22;6658;53.080;7.428;2023-05-28T14:04:14;21.10;96.20
13186;DHT22;6658;53.080;7.428;2023-05-28T14:06:40;21.10;96.30
13186;DHT22;6658;53.080;7.428;2023-05-28T14:09:06;21.10;96.00
13186;DHT22;6658;53.080;7.428;2023-05-28T14:11:32;21.10;96.70
13186;DHT22;6658;53.080;7.428;2023-05-28T14:13:57;21.20;95.90
13186;DHT22;6658;53.080;7.428;2023-05-28T14:16:23;21.20;95.70
13186;DHT22;6658;53.080;7.428;2023-05-28T14:18:49;21.00;95.90
13186;DHT22;6658;53.080;7.428;2023-05-28T14:21:14;21.10;95.20
13186;DHT22;6658;53.080;7.428;2023-05-28T14:23:41;21.10;95.80
13186;DHT22;6658;53.080;7.428;2023-05-28T14:26:07;21.10;96.30
13186;DHT22;6658;53.080;7.428;2023-05-28T14:28:33;21.00;95.70
13186;DHT22;6658;53.080;7.428;2023-05-28T14:30:58;21.00;96.10
13186;DHT22;6658;53.080;7.428;2023-05-28T14:33:24;21.10;96.10
13186;DHT22;6658;53.080;7.428;2023-05-28T14:35:54;20.90;95.20
13186;DHT22;6658;53.080;7.428;2023-05-28T14:38:20;20.90;95.50
13186;DHT22;6658;53.080;7.428;2023-05-28T14:40:46;20.90;95.30
13186;DHT22;6658;53.080;7.428;2023-05-28T14:43:12;20.90;96.30
13186;DHT22;6658;53.080;7.428;2023-05-28T14:45:37;20.90;96.80
13186;DHT22;6658;53.080;7.428;2023-05-28T14:48:03;20.90;96.50
13186;DHT22;6658;53.080;7.428;2023-05-28T14:50:29;20.60;97.00
13186;DHT22;6658;53.080;7.428;2023-05-28T14:52:55;20.60;97.80
13186;DHT22;6658;53.080;7.428;2023-05-28T14:55:20;20.60;98.40
13186;DHT22;6658;53.080;7.428;2023-05-28T14:57:46;20.40;98.90
13186;DHT22;6658;53.080;7.428;2023-05-28T15:00:12;20.30;97.60
13186;DHT22;6658;53.080;7.428;2023-05-28T15:02:38;20.50;98.60
13186;DHT22;6658;53.080;7.428;2023-05-28T15:05:04;20.40;98.50
13186;DHT22;6658;53.080;7.428;2023-05-28T15:07:31;20.40;99.10
13186;DHT22;6658;53.080;7.428;2023-05-28T15:09:56;20.40;99.10
13186;DHT22;6658;53.080;7.428;2023-05-28T15:12:22;20.50;99.10
13186;DHT22;6658;53.080;7.428;2023-05-28T15:14:48;20.60;99.30
13186;DHT22;6658;53.080;7.428;2023-05-28T15:17:13;20.70;99.00
13186;DHT22;6658;53.080;7.428;2023-05-28T15:19:39;20.60;98.20
13186;DHT22;6658;53.080;7.428;2023-05-28T15:22:05;20.50;99.00
13186;DHT22;6658;53.080;7.428;2023-05-28T15:24:31;20.30;99.10
13186;DHT22;6658;53.080;7.428;2023-05-28T15:26:57;20.40;99.20
13186;DHT22;6658;53.080;7.428;2023-05-28T15:29:23;20.20;98.70
13186;DHT22;6658;53.080;7.428;2023-05-28T15:31:50;20.00;99.90
13186;DHT22;6658;53.080;7.428;2023-05-28T15:34:17;19.90;99.90
13186;DHT22;6658;53.080;7.428;2023-05-28T15:36:43;19.80;99.90
13186;DHT22;6658;53.080;7.428;2023-05-28T15:39:09;19.80;99.90
13186;DHT22;6658;53.080;7.428;2023-05-28T15:41:36;19.80;99.90
13186;DHT22;6658;53.080;7.428;2023-05-28T15:44:02;19.80;99.90
13186;DHT22;6658;53.080;7.428;2023-05-28T15:46:28;19.80;99.90
13186;DHT22;6658;53.080;7.428;2023-05-28T15:48:54;19.70;99.90
13186;DHT22;6658;53.080;7.428;2023-05-28T15:51:20;19.70;99.90
13186;DHT22;6658;53.080;7.428;2023-05-28T15:53:46;19.70;99.90
13186;DHT22;6658;53.080;7.428;2023-05-28T15:56:12;19.70;99.90